createdAt,value
2019-05-19T00:01:19.389Z,15.93
2019-05-19T00:03:51.366Z,16.82
2019-05-19T00:06:22.890Z,16.65
2019-05-19T00:08:54.932Z,18.60
2019-05-19T00:11:26.005Z,15.85
2019-05-19T00:13:58.344Z,16.60
2019-05-19T00:16:29.986Z,17.27
2019-05-19T00:19:01.778Z,15.53
2019-05-19T00:21:33.446Z,16.15
2019-05-19T00:24:06.088Z,16.12
2019-05-19T00:26:40.137Z,15.10
2019-05-19T00:29:12.784Z,16.17
2019-05-19T00:31:44.902Z,15.98
2019-05-19T00:34:17.185Z,17.02
2019-05-19T00:36:48.633Z,17.37
2019-05-19T00:39:20.630Z,17.75
2019-05-19T00:41:52.694Z,17.80
2019-05-19T00:44:25.352Z,17.67
2019-05-19T00:46:57.546Z,17.60
2019-05-19T00:49:40.649Z,18.65
2019-05-19T00:52:02.770Z,17.73
2019-05-19T00:54:35.264Z,18.77
2019-05-19T00:57:07.943Z,18.77
2019-05-19T00:59:40.574Z,18.60
2019-05-19T01:02:12.143Z,19.27
2019-05-19T01:04:43.447Z,19.25
2019-05-19T01:07:14.687Z,18.45
2019-05-19T01:09:47.091Z,19.17
2019-05-19T01:12:19.003Z,19.00
2019-05-19T01:14:51.050Z,18.45
2019-05-19T01:17:22.705Z,19.40
2019-05-19T01:19:56.226Z,19.48
2019-05-19T01:22:28.840Z,19.67
2019-05-19T01:25:01.618Z,19.15
2019-05-19T01:27:35.225Z,19.25
2019-05-19T01:30:09.361Z,18.95
2019-05-19T01:32:41.089Z,18.45
2019-05-19T01:35:13.336Z,20.25
2019-05-19T01:37:44.995Z,20.37
2019-05-19T01:40:16.581Z,18.32
2019-05-19T01:42:48.179Z,18.27
2019-05-19T01:45:20.533Z,18.55
2019-05-19T01:47:52.382Z,19.95
2019-05-19T01:50:24.393Z,18.67
2019-05-19T01:52:56.705Z,19.30
2019-05-19T01:55:29.167Z,18.40
2019-05-19T01:58:01.944Z,18.87
2019-05-19T02:00:34.213Z,17.65
2019-05-19T02:03:06.615Z,18.15
2019-05-19T02:05:38.422Z,17.27
2019-05-19T02:08:09.862Z,16.77
2019-05-19T02:10:42.425Z,17.55
2019-05-19T02:13:14.714Z,18.00
2019-05-19T02:15:46.707Z,16.82
2019-05-19T02:18:19.747Z,18.17
2019-05-19T02:20:51.423Z,17.77
2019-05-19T02:23:23.206Z,18.15
2019-05-19T02:25:55.001Z,16.90
2019-05-19T02:28:28.022Z,17.57
2019-05-19T02:30:59.570Z,18.55
2019-05-19T02:33:35.531Z,18.05
2019-05-19T02:36:05.505Z,17.92
2019-05-19T02:38:36.914Z,17.65
2019-05-19T02:41:10.350Z,17.35
2019-05-19T02:43:42.704Z,17.98
2019-05-19T02:46:14.940Z,17.25
2019-05-19T02:48:47.690Z,19.15
2019-05-19T02:51:22.222Z,18.73
2019-05-19T02:53:55.505Z,18.77
2019-05-19T02:56:30.762Z,18.57
2019-05-19T02:59:02.384Z,16.52
2019-05-19T03:01:35.227Z,18.32
2019-05-19T03:04:07.584Z,18.57
2019-05-19T03:06:39.070Z,21.30
2019-05-19T03:09:10.643Z,21.60
2019-05-19T03:11:42.847Z,19.30
2019-05-19T03:14:14.318Z,18.48
2019-05-19T03:16:47.516Z,19.00
2019-05-19T03:19:19.403Z,18.92
2019-05-19T03:21:51.666Z,18.60
2019-05-19T03:24:24.187Z,17.60
2019-05-19T03:26:55.850Z,16.57
2019-05-19T03:29:29.378Z,16.90
2019-05-19T03:32:02.306Z,17.87
2019-05-19T03:34:33.745Z,17.32
2019-05-19T03:37:05.940Z,17.42
2019-05-19T03:39:37.511Z,17.20
2019-05-19T03:42:10.799Z,19.05
2019-05-19T03:44:42.737Z,17.40
2019-05-19T03:47:14.540Z,18.02
2019-05-19T03:49:46.600Z,18.25
2019-05-19T03:52:18.412Z,16.52
2019-05-19T03:54:50.305Z,18.82
2019-05-19T03:57:21.956Z,18.27
2019-05-19T03:59:53.942Z,17.52
2019-05-19T04:02:25.704Z,17.65
2019-05-19T04:04:58.098Z,17.40
2019-05-19T04:07:30.180Z,18.02
2019-05-19T04:10:01.990Z,17.90
2019-05-19T04:12:33.582Z,17.23
2019-05-19T04:15:07.263Z,18.12
2019-05-19T04:17:39.886Z,19.12
2019-05-19T04:20:12.724Z,17.82
2019-05-19T04:22:44.430Z,18.42
2019-05-19T04:25:17.097Z,18.90
2019-05-19T04:27:49.323Z,20.02
2019-05-19T04:30:21.423Z,20.80
2019-05-19T04:32:53.309Z,21.68
2019-05-19T04:35:24.748Z,21.02
2019-05-19T04:37:56.306Z,21.25
2019-05-19T04:40:27.845Z,22.45
2019-05-19T04:42:59.434Z,20.88
2019-05-19T04:45:31.359Z,21.80
2019-05-19T04:48:03.506Z,23.50
2019-05-19T04:50:36.638Z,23.07
2019-05-19T04:53:08.411Z,21.90
2019-05-19T04:55:42.008Z,23.40
2019-05-19T04:58:14.465Z,22.00
2019-05-19T05:00:46.100Z,23.30
2019-05-19T05:03:18.234Z,22.67
2019-05-19T05:05:50.419Z,22.02
2019-05-19T05:08:29.497Z,23.05
2019-05-19T05:10:55.327Z,22.52
2019-05-19T05:13:26.774Z,22.50
2019-05-19T05:15:58.756Z,22.48
2019-05-19T05:18:30.834Z,22.15
2019-05-19T05:21:02.406Z,21.20
2019-05-19T05:23:34.888Z,22.95
2019-05-19T05:26:07.626Z,21.65
2019-05-19T05:28:39.673Z,21.73
2019-05-19T05:31:11.566Z,22.25
2019-05-19T05:33:43.220Z,23.32
2019-05-19T05:36:14.950Z,23.42
2019-05-19T05:38:46.379Z,22.40
2019-05-19T05:41:17.624Z,21.80
2019-05-19T05:43:48.980Z,21.75
2019-05-19T05:46:20.505Z,23.32
2019-05-19T05:48:53.177Z,23.30
2019-05-19T05:51:24.935Z,23.05
2019-05-19T05:53:56.778Z,23.27
2019-05-19T05:56:29.488Z,22.37
2019-05-19T05:59:01.264Z,22.60
2019-05-19T06:01:32.942Z,21.42
2019-05-19T06:04:05.700Z,21.33
2019-05-19T06:06:37.540Z,22.73
2019-05-19T06:09:09.643Z,21.45
2019-05-19T06:11:41.071Z,20.52
2019-05-19T06:14:13.701Z,21.33
2019-05-19T06:16:45.613Z,22.35
2019-05-19T06:19:18.870Z,21.23
2019-05-19T06:21:51.512Z,23.07
2019-05-19T06:24:23.640Z,23.20
2019-05-19T06:26:55.798Z,23.20
2019-05-19T06:29:28.194Z,23.42
2019-05-19T06:32:01.043Z,23.60
2019-05-19T06:34:34.348Z,22.15
2019-05-19T06:37:06.919Z,23.07
2019-05-19T06:39:39.370Z,23.45
2019-05-19T06:42:11.306Z,21.33
2019-05-19T06:44:43.807Z,22.58
2019-05-19T06:47:15.928Z,24.15
2019-05-19T06:49:48.387Z,22.07
2019-05-19T06:52:20.262Z,23.52
2019-05-19T06:54:52.279Z,22.37
2019-05-19T06:57:23.882Z,22.70
2019-05-19T06:59:56.225Z,21.55
2019-05-19T07:02:27.561Z,20.27
2019-05-19T07:04:59.835Z,22.02
2019-05-19T07:07:32.678Z,22.32
2019-05-19T07:10:05.891Z,21.62
2019-05-19T07:12:39.143Z,17.00
2019-05-19T07:15:12.228Z,18.32
2019-05-19T07:17:44.562Z,17.87
2019-05-19T07:20:17.909Z,16.37
2019-05-19T07:22:49.362Z,16.12
2019-05-19T07:25:20.481Z,14.75
2019-05-19T07:27:52.040Z,13.43
2019-05-19T07:30:25.387Z,10.32
2019-05-19T07:32:57.365Z,6.75
2019-05-19T07:35:29.914Z,5.90
2019-05-19T07:38:01.947Z,5.12
2019-05-19T07:40:33.333Z,3.87
2019-05-19T07:43:05.278Z,5.62
2019-05-19T07:45:37.773Z,4.72
2019-05-19T07:48:09.443Z,5.42
2019-05-19T07:50:41.184Z,5.92
2019-05-19T07:53:12.905Z,5.72
2019-05-19T07:55:44.655Z,7.85
2019-05-19T07:58:16.292Z,9.23
2019-05-19T08:00:48.229Z,11.18
2019-05-19T08:03:21.142Z,7.95
2019-05-19T08:05:57.218Z,7.42
2019-05-19T08:08:29.024Z,8.55
2019-05-19T08:11:06.956Z,8.98
2019-05-19T08:13:42.351Z,8.18
2019-05-19T08:16:14.162Z,9.08
2019-05-19T08:18:46.151Z,10.03
2019-05-19T08:21:18.496Z,9.83
2019-05-19T08:24:00.108Z,9.70
2019-05-19T08:26:23.690Z,8.03
2019-05-19T08:28:55.915Z,7.47
2019-05-19T08:31:29.175Z,6.65
2019-05-19T08:34:01.085Z,6.45
2019-05-19T08:36:32.593Z,6.15
2019-05-19T08:39:06.048Z,7.00
2019-05-19T08:41:38.180Z,8.03
2019-05-19T08:44:10.447Z,8.20
2019-05-19T08:46:41.546Z,6.37
2019-05-19T08:49:13.071Z,6.53
2019-05-19T08:51:45.604Z,5.53
2019-05-19T08:54:19.075Z,5.50
2019-05-19T08:56:50.932Z,5.70
2019-05-19T08:59:23.032Z,5.90
2019-05-19T09:01:55.583Z,5.97
2019-05-19T09:04:29.028Z,5.67
2019-05-19T09:07:00.971Z,5.30
2019-05-19T09:09:33.144Z,5.87
2019-05-19T09:12:05.590Z,5.95
2019-05-19T09:14:38.356Z,5.50
2019-05-19T09:17:10.948Z,5.45
2019-05-19T09:19:43.506Z,4.85
2019-05-19T09:22:14.996Z,5.33
2019-05-19T09:24:47.743Z,5.62
2019-05-19T09:27:19.633Z,5.83
2019-05-19T09:29:52.030Z,5.08
2019-05-19T09:32:24.383Z,6.20
2019-05-19T09:34:56.366Z,5.22
2019-05-19T09:37:27.758Z,4.90
2019-05-19T09:39:59.719Z,5.25
2019-05-19T09:42:32.732Z,5.20
2019-05-19T09:45:05.810Z,5.40
2019-05-19T09:47:38.310Z,5.83
2019-05-19T09:50:11.435Z,5.53
2019-05-19T09:52:42.675Z,5.58
2019-05-19T09:55:14.112Z,6.65
2019-05-19T09:57:45.804Z,6.53
2019-05-19T10:00:17.838Z,10.15
2019-05-19T10:02:49.576Z,9.50
2019-05-19T10:05:22.032Z,9.70
2019-05-19T10:07:54.033Z,9.65
2019-05-19T10:10:29.446Z,8.50
2019-05-19T10:13:01.526Z,11.73
2019-05-19T10:15:33.917Z,10.90
2019-05-19T10:18:05.459Z,11.83
2019-05-19T10:20:38.580Z,12.25
2019-05-19T10:23:10.821Z,15.25
2019-05-19T10:25:42.299Z,19.92
2019-05-19T10:28:13.273Z,24.23
2019-05-19T10:30:46.788Z,24.30
2019-05-19T10:33:19.284Z,25.37
2019-05-19T10:35:50.681Z,26.48
2019-05-19T10:38:22.732Z,25.85
2019-05-19T10:40:56.313Z,25.48
2019-05-19T10:46:00.561Z,28.00
2019-05-19T10:48:32.869Z,27.50
2019-05-19T10:51:04.773Z,25.17
2019-05-19T10:56:10.308Z,24.87
2019-05-19T10:58:42.728Z,25.75
2019-05-19T11:01:14.946Z,26.00
2019-05-19T11:03:46.873Z,24.82
2019-05-19T11:06:18.109Z,26.00
2019-05-19T11:13:52.876Z,21.10
2019-05-19T11:16:25.113Z,17.37
2019-05-19T11:18:56.547Z,13.72
2019-05-19T11:21:28.104Z,13.45
2019-05-19T11:24:01.303Z,13.08
2019-05-19T11:26:32.880Z,12.85
2019-05-19T11:29:05.850Z,14.60
2019-05-19T11:31:39.430Z,12.90
2019-05-19T11:34:11.441Z,12.33
2019-05-19T11:36:42.792Z,14.03
2019-05-19T11:39:14.635Z,12.93
2019-05-19T11:41:46.623Z,12.55
2019-05-19T11:44:19.633Z,12.33
2019-05-19T11:47:57.319Z,11.78
2019-05-19T11:50:30.209Z,11.48
2019-05-19T11:53:01.760Z,11.15
2019-05-19T11:55:33.564Z,12.55
2019-05-19T11:58:05.813Z,12.33
2019-05-19T12:00:38.268Z,12.58
2019-05-19T12:03:11.293Z,12.98
2019-05-19T12:05:43.738Z,13.20
2019-05-19T12:08:15.032Z,11.60
2019-05-19T12:10:48.524Z,11.65
2019-05-19T12:13:20.360Z,11.95
2019-05-19T12:15:51.803Z,11.57
2019-05-19T12:18:23.713Z,12.05
2019-05-19T12:20:55.985Z,11.48
2019-05-19T12:23:27.490Z,11.43
2019-05-19T12:25:59.102Z,11.12
2019-05-19T12:28:30.501Z,11.15
2019-05-19T12:31:01.847Z,10.50
2019-05-19T12:33:33.181Z,10.03
2019-05-19T12:36:05.381Z,11.38
2019-05-19T12:38:36.758Z,11.03
2019-05-19T12:41:08.901Z,9.80
2019-05-19T12:43:40.679Z,9.75
2019-05-19T12:46:16.378Z,10.48
2019-05-19T12:48:46.262Z,9.53
2019-05-19T12:51:17.346Z,10.82
2019-05-19T12:53:49.030Z,10.08
2019-05-19T12:56:20.996Z,9.25
2019-05-19T12:58:52.142Z,9.23
2019-05-19T13:01:24.872Z,8.60
2019-05-19T13:04:11.280Z,8.45
2019-05-19T13:06:58.004Z,8.65
2019-05-19T13:09:29.229Z,8.68
2019-05-19T13:12:02.388Z,8.90
2019-05-19T13:14:34.351Z,9.33
2019-05-19T13:17:06.102Z,8.38
2019-05-19T13:19:37.374Z,8.60
2019-05-19T13:22:09.305Z,9.08
2019-05-19T13:24:40.786Z,8.23
2019-05-19T13:27:12.562Z,7.80
2019-05-19T13:29:43.740Z,8.40
2019-05-19T14:50:39.490Z,6.58
2019-05-19T14:53:13.984Z,6.25
2019-05-19T14:55:45.575Z,5.55
2019-05-19T14:58:17.347Z,5.53
2019-05-19T15:00:50.051Z,5.35
2019-05-19T15:03:23.287Z,5.03
2019-05-19T15:05:55.150Z,5.22
2019-05-19T15:08:26.824Z,4.78
2019-05-19T15:10:59.419Z,4.95
2019-05-19T15:13:31.150Z,4.60
2019-05-19T15:16:04.325Z,4.50
2019-05-19T15:18:36.035Z,4.87
2019-05-19T15:21:08.405Z,5.03
2019-05-19T15:23:40.073Z,5.58
2019-05-19T15:26:13.332Z,5.30
2019-05-19T15:28:46.417Z,4.97
2019-05-19T15:31:18.327Z,5.15
2019-05-19T15:33:50.743Z,5.72
2019-05-19T15:36:23.146Z,4.78
2019-05-19T15:38:55.398Z,4.90
2019-05-19T15:41:28.105Z,4.12
2019-05-19T15:43:59.227Z,4.50
2019-05-19T15:46:30.715Z,4.55
2019-05-19T15:49:03.407Z,3.98
2019-05-19T15:51:37.885Z,4.95
2019-05-19T15:54:10.274Z,4.20
2019-05-19T15:56:41.918Z,3.58
2019-05-19T15:59:14.559Z,3.35
2019-05-19T16:01:46.389Z,4.00
2019-05-19T16:04:18.565Z,2.72
2019-05-19T16:06:50.408Z,3.27
2019-05-19T16:09:23.347Z,3.58
2019-05-19T16:11:56.612Z,3.20
2019-05-19T16:14:29.358Z,3.10
2019-05-19T16:17:02.046Z,3.80
2019-05-19T16:19:33.407Z,3.40
2019-05-19T16:22:04.808Z,3.55
2019-05-19T16:24:37.190Z,3.25
2019-05-19T16:27:12.391Z,3.05
2019-05-19T16:29:43.195Z,4.17
2019-05-19T16:32:16.955Z,3.87
2019-05-19T16:34:49.600Z,3.80
2019-05-19T16:37:21.613Z,4.22
2019-05-19T16:39:54.476Z,4.10
2019-05-19T16:42:27.464Z,4.20
2019-05-19T16:44:58.850Z,4.62
2019-05-19T16:47:30.601Z,4.70
2019-05-19T16:50:03.081Z,4.45
2019-05-19T16:52:36.504Z,4.72
2019-05-19T16:55:10.248Z,4.12
2019-05-19T16:57:42.302Z,4.40
2019-05-19T17:00:14.228Z,4.15
2019-05-19T17:02:46.033Z,4.35
2019-05-19T17:08:22.063Z,4.12
2019-05-19T17:10:53.629Z,4.62
2019-05-19T17:13:26.589Z,4.75
2019-05-19T17:15:58.526Z,4.60
2019-05-19T17:18:31.502Z,4.80
2019-05-19T17:21:03.590Z,5.47
2019-05-19T17:23:34.998Z,5.30
2019-05-19T17:26:06.389Z,5.20
2019-05-19T17:28:40.077Z,5.65
2019-05-19T17:31:11.901Z,5.30
2019-05-19T17:33:48.774Z,5.72
2019-05-19T17:36:22.606Z,6.58
2019-05-19T17:38:54.789Z,6.60
2019-05-19T17:41:27.853Z,7.05
2019-05-19T17:43:59.125Z,7.58
2019-05-19T17:46:31.831Z,6.70
2019-05-19T17:49:04.091Z,6.42
2019-05-19T17:51:36.026Z,6.78
2019-05-19T17:54:07.988Z,6.05
2019-05-19T17:56:40.416Z,6.20
2019-05-19T17:59:16.666Z,5.35
2019-05-19T18:01:46.352Z,5.12
2019-05-19T18:04:19.071Z,5.15
2019-05-19T18:06:50.492Z,4.78
2019-05-19T18:09:23.801Z,4.17
2019-05-19T18:11:55.716Z,4.83
2019-05-19T18:14:28.525Z,5.08
2019-05-19T18:17:00.186Z,4.45
2019-05-19T18:19:32.443Z,4.70
2019-05-19T18:22:04.077Z,4.85
2019-05-19T18:24:36.048Z,4.97
2019-05-19T18:27:08.254Z,5.90
2019-05-19T18:29:40.580Z,6.65
2019-05-19T18:32:25.986Z,7.35
2019-05-19T18:37:41.920Z,6.15
2019-05-19T18:40:15.048Z,5.55
2019-05-19T18:42:51.355Z,5.50
2019-05-19T18:45:24.420Z,5.58
2019-05-19T18:47:55.967Z,5.30
2019-05-19T18:50:32.272Z,6.33
2019-05-19T18:53:07.378Z,5.80
2019-05-19T18:55:39.637Z,6.60
2019-05-19T18:58:10.888Z,6.37
2019-05-19T19:00:42.777Z,7.15
2019-05-19T19:03:14.315Z,7.75
2019-05-19T19:05:45.530Z,7.53
2019-05-19T19:08:17.503Z,7.17
2019-05-19T19:10:49.043Z,7.00
2019-05-19T19:13:23.615Z,7.12
2019-05-19T19:15:54.944Z,7.33
2019-05-19T19:18:29.596Z,7.33
2019-05-19T19:21:00.472Z,8.13
2019-05-19T19:23:32.122Z,7.97
2019-05-19T19:26:03.582Z,7.00
2019-05-19T19:28:35.367Z,5.70
2019-05-19T19:31:06.715Z,5.42
2019-05-19T19:33:38.440Z,5.00
2019-05-19T19:36:09.677Z,5.12
2019-05-19T19:38:41.317Z,5.12
2019-05-19T19:41:14.395Z,5.00
2019-05-19T19:43:46.276Z,5.35
2019-05-19T19:46:17.399Z,3.90
2019-05-19T19:48:49.533Z,4.40
2019-05-19T19:51:21.566Z,4.67
2019-05-19T19:53:54.640Z,4.30
2019-05-19T19:56:26.969Z,4.58
2019-05-19T19:58:58.437Z,4.15
2019-05-19T20:01:31.037Z,3.52
2019-05-19T20:04:03.040Z,4.33
2019-05-19T20:06:34.757Z,3.80
2019-05-19T20:09:07.877Z,3.85
2019-05-19T20:11:38.952Z,4.20
2019-05-19T20:14:10.403Z,4.12
2019-05-19T20:16:42.717Z,3.77
2019-05-19T20:19:14.392Z,3.55
2019-05-19T20:21:45.944Z,3.58
2019-05-19T20:24:17.348Z,4.20
2019-05-19T20:26:48.829Z,3.58
2019-05-19T20:29:21.470Z,3.90
2019-05-19T20:31:53.388Z,4.33
2019-05-19T20:34:29.389Z,5.33
2019-05-19T20:37:00.731Z,4.97
2019-05-19T20:39:33.918Z,5.45
2019-05-19T20:42:06.553Z,4.97
2019-05-19T20:44:39.030Z,5.00
2019-05-19T20:47:10.914Z,5.42
2019-05-19T20:49:42.253Z,5.05
2019-05-19T20:52:13.622Z,4.92
2019-05-19T20:54:45.012Z,4.97
2019-05-19T20:57:16.458Z,4.65
2019-05-19T20:59:47.474Z,4.92
2019-05-19T21:02:19.498Z,4.42
2019-05-19T21:04:51.935Z,3.98
2019-05-19T21:07:24.146Z,4.97
2019-05-19T21:09:55.657Z,4.80
2019-05-19T21:12:27.997Z,4.72
2019-05-19T21:15:01.141Z,4.50
2019-05-19T21:17:34.395Z,4.47
2019-05-19T21:20:08.035Z,5.45
2019-05-19T21:22:39.778Z,6.70
2019-05-19T21:25:11.835Z,6.50
2019-05-19T21:27:43.635Z,7.42
2019-05-19T21:30:15.693Z,7.47
2019-05-19T21:32:47.842Z,4.67
2019-05-19T21:35:19.967Z,5.10
2019-05-19T21:37:51.640Z,4.75
2019-05-19T21:40:24.002Z,5.58
2019-05-19T21:42:55.164Z,8.20
2019-05-19T21:45:26.948Z,8.08
2019-05-19T21:47:58.661Z,7.40
2019-05-19T21:50:30.440Z,7.40
2019-05-19T21:53:01.678Z,5.42
2019-05-19T21:55:33.572Z,6.28
2019-05-19T21:58:05.034Z,7.17
2019-05-19T22:00:36.757Z,9.25
2019-05-19T22:03:08.282Z,6.75
2019-05-19T22:05:52.507Z,4.25
2019-05-19T22:08:14.183Z,4.90
2019-05-19T22:10:45.716Z,5.70
2019-05-19T22:13:17.089Z,4.65
2019-05-19T22:15:49.382Z,3.87
2019-05-19T22:18:21.205Z,4.35
2019-05-19T22:20:53.160Z,5.47
2019-05-19T22:23:24.892Z,4.78
2019-05-19T22:25:56.413Z,5.30
2019-05-19T22:28:27.757Z,4.60
2019-05-19T22:30:59.446Z,4.47
2019-05-19T22:33:31.088Z,4.30
2019-05-19T22:36:01.991Z,4.30
2019-05-19T22:38:33.683Z,5.40
2019-05-19T22:41:05.099Z,4.53
2019-05-19T22:43:36.312Z,4.35
2019-05-19T22:46:08.411Z,4.92
2019-05-19T22:48:40.574Z,5.03
2019-05-19T22:51:12.705Z,6.10
2019-05-19T22:53:44.497Z,4.80
2019-05-19T22:56:16.370Z,4.55
2019-05-19T22:58:47.549Z,4.33
2019-05-19T23:01:19.709Z,4.42
2019-05-19T23:03:51.870Z,5.35
2019-05-19T23:06:23.163Z,6.92
2019-05-19T23:08:54.678Z,7.83
2019-05-19T23:11:26.584Z,5.75
2019-05-19T23:13:57.982Z,6.22
2019-05-19T23:16:29.583Z,5.28
2019-05-19T23:19:01.023Z,5.35
2019-05-19T23:21:34.574Z,4.65
2019-05-19T23:24:05.757Z,4.70
2019-05-19T23:26:37.077Z,4.60
2019-05-19T23:29:08.681Z,5.28
2019-05-19T23:31:42.663Z,4.87
2019-05-19T23:34:13.549Z,5.70
2019-05-19T23:36:44.946Z,5.40
2019-05-19T23:39:16.666Z,4.67
2019-05-19T23:41:48.127Z,5.40
2019-05-19T23:44:19.538Z,4.90
2019-05-19T23:46:51.318Z,4.78
2019-05-19T23:49:22.779Z,4.28
2019-05-19T23:51:54.203Z,4.30
2019-05-19T23:54:25.678Z,4.30
2019-05-19T23:56:56.793Z,4.75
2019-05-19T23:59:28.302Z,4.58
